sensor_id;sensor_type;location;lat;lon;timestamp;temperature;humidity
49242;DHT22;35079;52.704;13.814;2023-12-20T00:00:40;7.30;99.90
49242;DHT22;35079;52.704;13.814;2023-12-20T00:03:05;7.20;99.90
49242;DHT22;35079;52.704;13.814;2023-12-20T00:05:31;7.30;99.90
49242;DHT22;35079;52.704;13.814;2023-12-20T00:08:01;7.40;99.90
49242;DHT22;35079;52.704;13.814;2023-12-20T00:10:26;7.20;99.90
49242;DHT22;35079;52.704;13.814;2023-12-20T00:12:52;7.20;99.90
49242;DHT22;35079;52.704;13.814;2023-12-20T00:15:17;7.30;99.90
49242;DHT22;35079;52.704;13.814;2023-12-20T00:17:43;7.30;99.90
49242;DHT22;35079;52.704;13.814;2023-12-20T00:20:09;7.30;99.90
49242;DHT22;35079;52.704;13.814;2023-12-20T00:22:35;7.20;99.90
49242;DHT22;35079;52.704;13.814;2023-12-20T00:25:00;7.20;99.90
49242;DHT22;35079;52.704;13.814;2023-12-20T00:27:26;7.20;99.90
49242;DHT22;35079;52.704;13.814;2023-12-20T00:29:51;7.40;99.90
49242;DHT22;35079;52.704;13.814;2023-12-20T00:32:17;7.20;99.90
49242;DHT22;35079;52.704;13.814;2023-12-20T00:34:43;7.20;99.90
49242;DHT22;35079;52.704;13.814;2023-12-20T00:37:09;7.20;99.90
49242;DHT22;35079;52.704;13.814;2023-12-20T00:39:35;7.20;99.90
49242;DHT22;35079;52.704;13.814;2023-12-20T00:42:00;7.40;99.90
49242;DHT22;35079;52.704;13.814;2023-12-20T00:44:26;7.20;99.90
49242;DHT22;35079;52.704;13.814;2023-12-20T00:46:51;7.20;99.90
49242;DHT22;35079;52.704;13.814;2023-12-20T00:49:17;7.20;99.90
49242;DHT22;35079;52.704;13.814;2023-12-20T00:51:43;7.30;99.90
49242;DHT22;35079;52.704;13.814;2023-12-20T00:54:08;7.30;99.90
49242;DHT22;35079;52.704;13.814;2023-12-20T00:56:34;7.40;99.90
49242;DHT22;35079;52.704;13.814;2023-12-20T00:59:00;7.20;99.90
49242;DHT22;35079;52.704;13.814;2023-12-20T01:01:26;7.40;99.90
49242;DHT22;35079;52.704;13.814;2023-12-20T01:03:51;7.20;99.90
49242;DHT22;35079;52.704;13.814;2023-12-20T01:06:18;7.20;99.90
49242;DHT22;35079;52.704;13.814;2023-12-20T01:08:43;7.20;99.90
49242;DHT22;35079;52.704;13.814;2023-12-20T01:11:09;7.20;99.90
49242;DHT22;35079;52.704;13.814;2023-12-20T01:13:35;7.30;99.90
49242;DHT22;35079;52.704;13.814;2023-12-20T01:16:00;7.20;99.90
49242;DHT22;35079;52.704;13.814;2023-12-20T01:18:26;7.40;99.90
49242;DHT22;35079;52.704;13.814;2023-12-20T01:20:52;7.40;99.90
49242;DHT22;35079;52.704;13.814;2023-12-20T01:23:18;7.20;99.90
49242;DHT22;35079;52.704;13.814;2023-12-20T01:25:43;7.20;99.90
49242;DHT22;35079;52.704;13.814;2023-12-20T01:28:09;7.30;99.90
49242;DHT22;35079;52.704;13.814;2023-12-20T01:30:34;7.20;99.90
49242;DHT22;35079;52.704;13.814;2023-12-20T01:33:00;7.20;99.90
49242;DHT22;35079;52.704;13.814;2023-12-20T01:35:26;7.40;99.90
49242;DHT22;35079;52.704;13.814;2023-12-20T01:37:52;7.20;99.90
49242;DHT22;35079;52.704;13.814;2023-12-20T01:40:22;7.20;99.90
49242;DHT22;35079;52.704;13.814;2023-12-20T01:42:47;7.30;99.90
49242;DHT22;35079;52.704;13.814;2023-12-20T01:45:13;7.20;99.90
49242;DHT22;35079;52.704;13.814;2023-12-20T01:47:39;7.20;99.90
49242;DHT22;35079;52.704;13.814;2023-12-20T01:50:05;7.30;99.90
49242;DHT22;35079;52.704;13.814;2023-12-20T01:52:33;7.20;99.90
49242;DHT22;35079;52.704;13.814;2023-12-20T01:54:59;7.20;99.90
49242;DHT22;35079;52.704;13.814;2023-12-20T01:57:28;7.30;99.90
49242;DHT22;35079;52.704;13.814;2023-12-20T01:59:54;7.20;99.90
49242;DHT22;35079;52.704;13.814;2023-12-20T02:02:20;7.10;99.90
49242;DHT22;35079;52.704;13.814;2023-12-20T02:04:45;7.30;99.90
49242;DHT22;35079;52.704;13.814;2023-12-20T02:07:13;7.20;99.90
49242;DHT22;35079;52.704;13.814;2023-12-20T02:09:39;7.30;99.90
49242;DHT22;35079;52.704;13.814;2023-12-20T02:12:05;7.20;99.90
49242;DHT22;35079;52.704;13.814;2023-12-20T02:14:31;7.30;99.90
49242;DHT22;35079;52.704;13.814;2023-12-20T02:16:56;7.30;99.90
49242;DHT22;35079;52.704;13.814;2023-12-20T02:19:22;7.20;99.90
49242;DHT22;35079;52.704;13.814;2023-12-20T02:21:48;7.10;99.90
49242;DHT22;35079;52.704;13.814;2023-12-20T02:24:13;7.10;99.90
49242;DHT22;35079;52.704;13.814;2023-12-20T02:26:39;7.00;99.90
49242;DHT22;35079;52.704;13.814;2023-12-20T02:29:05;7.20;99.90
49242;DHT22;35079;52.704;13.814;2023-12-20T02:31:31;7.00;99.90
49242;DHT22;35079;52.704;13.814;2023-12-20T02:33:57;7.10;99.90
49242;DHT22;35079;52.704;13.814;2023-12-20T02:36:22;7.00;99.90
49242;DHT22;35079;52.704;13.814;2023-12-20T02:38:48;7.00;99.90
49242;DHT22;35079;52.704;13.814;2023-12-20T02:41:13;7.00;99.90
49242;DHT22;35079;52.704;13.814;2023-12-20T02:43:42;7.10;99.90
49242;DHT22;35079;52.704;13.814;2023-12-20T02:46:07;7.00;99.90
49242;DHT22;35079;52.704;13.814;2023-12-20T02:48:33;6.80;99.90
49242;DHT22;35079;52.704;13.814;2023-12-20T02:50:59;6.80;99.90
49242;DHT22;35079;52.704;13.814;2023-12-20T02:53:24;6.80;99.90
49242;DHT22;35079;52.704;13.814;2023-12-20T02:55:50;6.80;99.90
49242;DHT22;35079;52.704;13.814;2023-12-20T02:58:15;6.80;99.90
49242;DHT22;35079;52.704;13.814;2023-12-20T03:00:43;6.90;99.90
49242;DHT22;35079;52.704;13.814;2023-12-20T03:03:08;6.80;99.90
49242;DHT22;35079;52.704;13.814;2023-12-20T03:05:34;6.70;99.90
49242;DHT22;35079;52.704;13.814;2023-12-20T03:07:59;6.80;99.90
49242;DHT22;35079;52.704;13.814;2023-12-20T03:10:25;6.80;99.90
49242;DHT22;35079;52.704;13.814;2023-12-20T03:12:50;6.80;99.90
49242;DHT22;35079;52.704;13.814;2023-12-20T03:15:16;6.70;99.90
49242;DHT22;35079;52.704;13.814;2023-12-20T03:17:42;6.70;99.90
49242;DHT22;35079;52.704;13.814;2023-12-20T03:20:08;6.50;99.90
49242;DHT22;35079;52.704;13.814;2023-12-20T03:22:33;6.60;99.90
49242;DHT22;35079;52.704;13.814;2023-12-20T03:25:00;6.60;99.90
49242;DHT22;35079;52.704;13.814;2023-12-20T03:27:25;6.50;99.90
49242;DHT22;35079;52.704;13.814;2023-12-20T03:29:51;6.60;99.90
49242;DHT22;35079;52.704;13.814;2023-12-20T03:32:17;6.60;99.90
49242;DHT22;35079;52.704;13.814;2023-12-20T03:34:42;6.40;99.90
49242;DHT22;35079;52.704;13.814;2023-12-20T03:37:08;6.50;99.90
49242;DHT22;35079;52.704;13.814;2023-12-20T03:39:33;6.50;99.90
49242;DHT22;35079;52.704;13.814;2023-12-20T03:41:59;6.60;99.90
49242;DHT22;35079;52.704;13.814;2023-12-20T03:44:24;6.40;99.90
49242;DHT22;35079;52.704;13.814;2023-12-20T03:46:50;6.40;99.90
49242;DHT22;35079;52.704;13.814;2023-12-20T03:49:16;6.40;99.90
49242;DHT22;35079;52.704;13.814;2023-12-20T03:51:41;6.50;99.90
49242;DHT22;35079;52.704;13.814;2023-12-20T03:54:08;6.40;99.90
49242;DHT22;35079;52.704;13.814;2023-12-20T03:56:33;6.40;99.90
49242;DHT22;35079;52.704;13.814;2023-12-20T03:58:59;6.50;99.90
49242;DHT22;35079;52.704;13.814;2023-12-20T04:01:24;6.40;99.90
49242;DHT22;35079;52.704;13.814;2023-12-20T04:03:51;6.50;99.90
49242;DHT22;35079;52.704;13.814;2023-12-20T04:06:19;6.60;99.90
49242;DHT22;35079;52.704;13.814;2023-12-20T04:08:45;6.60;99.90
49242;DHT22;35079;52.704;13.814;2023-12-20T04:11:11;6.40;99.90
49242;DHT22;35079;52.704;13.814;2023-12-20T04:13:36;6.30;99.90
49242;DHT22;35079;52.704;13.814;2023-12-20T04:16:02;6.30;99.90
49242;DHT22;35079;52.704;13.814;2023-12-20T04:18:27;6.20;99.90
49242;DHT22;35079;52.704;13.814;2023-12-20T04:20:53;6.20;99.90
49242;DHT22;35079;52.704;13.814;2023-12-20T04:23:19;6.10;99.90
49242;DHT22;35079;52.704;13.814;2023-12-20T04:25:45;6.10;99.90
49242;DHT22;35079;52.704;13.814;2023-12-20T04:28:10;6.20;99.90
49242;DHT22;35079;52.704;13.814;2023-12-20T04:30:36;6.10;99.90
49242;DHT22;35079;52.704;13.814;2023-12-20T04:33:01;5.90;99.90
49242;DHT22;35079;52.704;13.814;2023-12-20T04:35:27;5.90;99.90
49242;DHT22;35079;52.704;13.814;2023-12-20T04:37:53;5.80;99.90
49242;DHT22;35079;52.704;13.814;2023-12-20T04:40:19;5.90;99.90
49242;DHT22;35079;52.704;13.814;2023-12-20T04:42:45;5.60;99.90
49242;DHT22;35079;52.704;13.814;2023-12-20T04:45:11;5.60;99.90
49242;DHT22;35079;52.704;13.814;2023-12-20T04:47:38;5.60;99.90
49242;DHT22;35079;52.704;13.814;2023-12-20T04:50:04;5.50;99.90
49242;DHT22;35079;52.704;13.814;2023-12-20T04:52:30;5.60;99.90
49242;DHT22;35079;52.704;13.814;2023-12-20T04:54:56;5.60;99.90
49242;DHT22;35079;52.704;13.814;2023-12-20T04:57:22;5.30;99.90
49242;DHT22;35079;52.704;13.814;2023-12-20T04:59:47;5.30;99.90
49242;DHT22;35079;52.704;13.814;2023-12-20T05:02:13;5.30;99.90
49242;DHT22;35079;52.704;13.814;2023-12-20T05:04:38;5.30;99.90
49242;DHT22;35079;52.704;13.814;2023-12-20T05:07:04;5.30;99.90
49242;DHT22;35079;52.704;13.814;2023-12-20T05:09:30;5.50;99.90
49242;DHT22;35079;52.704;13.814;2023-12-20T05:11:56;5.50;99.90
49242;DHT22;35079;52.704;13.814;2023-12-20T05:14:21;5.40;99.90
49242;DHT22;35079;52.704;13.814;2023-12-20T05:16:47;5.50;99.90
49242;DHT22;35079;52.704;13.814;2023-12-20T05:19:12;5.70;99.90
49242;DHT22;35079;52.704;13.814;2023-12-20T05:21:39;5.70;99.90
49242;DHT22;35079;52.704;13.814;2023-12-20T05:24:05;5.60;99.90
49242;DHT22;35079;52.704;13.814;2023-12-20T05:26:31;5.70;99.90
49242;DHT22;35079;52.704;13.814;2023-12-20T05:28:56;5.70;99.90
49242;DHT22;35079;52.704;13.814;2023-12-20T05:31:22;5.70;99.90
49242;DHT22;35079;52.704;13.814;2023-12-20T05:33:47;5.70;99.90
49242;DHT22;35079;52.704;13.814;2023-12-20T05:36:13;5.90;99.90
49242;DHT22;35079;52.704;13.814;2023-12-20T05:38:40;5.70;99.90
49242;DHT22;35079;52.704;13.814;2023-12-20T05:41:06;5.80;99.90
49242;DHT22;35079;52.704;13.814;2023-12-20T05:43:31;5.70;99.90
49242;DHT22;35079;52.704;13.814;2023-12-20T05:45:58;5.80;99.90
49242;DHT22;35079;52.704;13.814;2023-12-20T05:48:23;5.70;99.90
49242;DHT22;35079;52.704;13.814;2023-12-20T05:50:49;5.70;99.90
49242;DHT22;35079;52.704;13.814;2023-12-20T05:53:14;5.40;99.90
49242;DHT22;35079;52.704;13.814;2023-12-20T05:55:40;5.40;99.90
49242;DHT22;35079;52.704;13.814;2023-12-20T05:58:06;5.40;99.90
49242;DHT22;35079;52.704;13.814;2023-12-20T06:00:31;5.30;99.90
49242;DHT22;35079;52.704;13.814;2023-12-20T06:02:57;5.40;99.90
49242;DHT22;35079;52.704;13.814;2023-12-20T06:05:22;5.20;99.90
49242;DHT22;35079;52.704;13.814;2023-12-20T06:07:48;5.10;99.90
49242;DHT22;35079;52.704;13.814;2023-12-20T06:10:16;5.10;99.90
49242;DHT22;35079;52.704;13.814;2023-12-20T06:12:41;5.00;99.90
49242;DHT22;35079;52.704;13.814;2023-12-20T06:15:07;5.00;99.90
49242;DHT22;35079;52.704;13.814;2023-12-20T06:17:33;5.00;99.90
49242;DHT22;35079;52.704;13.814;2023-12-20T06:20:00;5.00;99.90
49242;DHT22;35079;52.704;13.814;2023-12-20T06:22:26;5.00;99.90
49242;DHT22;35079;52.704;13.814;2023-12-20T06:24:51;5.10;99.90
49242;DHT22;35079;52.704;13.814;2023-12-20T06:27:17;5.20;99.90
49242;DHT22;35079;52.704;13.814;2023-12-20T06:29:43;5.10;99.90
49242;DHT22;35079;52.704;13.814;2023-12-20T06:32:10;5.30;99.90
49242;DHT22;35079;52.704;13.814;2023-12-20T06:34:36;5.20;99.90
49242;DHT22;35079;52.704;13.814;2023-12-20T06:37:01;5.20;99.90
49242;DHT22;35079;52.704;13.814;2023-12-20T06:39:27;5.20;99.90
49242;DHT22;35079;52.704;13.814;2023-12-20T06:41:53;5.30;99.90
49242;DHT22;35079;52.704;13.814;2023-12-20T06:44:19;5.30;99.90
49242;DHT22;35079;52.704;13.814;2023-12-20T06:46:44;5.20;99.90
49242;DHT22;35079;52.704;13.814;2023-12-20T06:49:10;5.30;99.90
49242;DHT22;35079;52.704;13.814;2023-12-20T06:51:35;5.20;99.90
49242;DHT22;35079;52.704;13.814;2023-12-20T06:54:01;5.30;99.90
49242;DHT22;35079;52.704;13.814;2023-12-20T06:56:28;5.20;99.90
49242;DHT22;35079;52.704;13.814;2023-12-20T06:58:53;5.20;99.90
49242;DHT22;35079;52.704;13.814;2023-12-20T07:01:19;5.10;99.90
49242;DHT22;35079;52.704;13.814;2023-12-20T07:03:44;5.20;99.90
49242;DHT22;35079;52.704;13.814;2023-12-20T07:06:10;5.10;99.90
49242;DHT22;35079;52.704;13.814;2023-12-20T07:08:36;5.10;99.90
49242;DHT22;35079;52.704;13.814;2023-12-20T07:11:02;5.10;99.90
49242;DHT22;35079;52.704;13.814;2023-12-20T07:13:28;5.10;99.90
49242;DHT22;35079;52.704;13.814;2023-12-20T07:15:53;5.20;99.90
49242;DHT22;35079;52.704;13.814;2023-12-20T07:18:19;5.10;99.90
49242;DHT22;35079;52.704;13.814;2023-12-20T07:20:44;5.20;99.90
49242;DHT22;35079;52.704;13.814;2023-12-20T07:23:10;5.10;99.90
49242;DHT22;35079;52.704;13.814;2023-12-20T07:25:35;5.20;99.90
49242;DHT22;35079;52.704;13.814;2023-12-20T07:28:01;5.40;99.90
49242;DHT22;35079;52.704;13.814;2023-12-20T07:30:27;5.40;99.90
49242;DHT22;35079;52.704;13.814;2023-12-20T07:32:53;5.30;99.90
49242;DHT22;35079;52.704;13.814;2023-12-20T07:35:18;5.30;99.90
49242;DHT22;35079;52.704;13.814;2023-12-20T07:37:44;5.40;99.90
49242;DHT22;35079;52.704;13.814;2023-12-20T07:40:10;5.40;99.90
49242;DHT22;35079;52.704;13.814;2023-12-20T07:42:36;5.40;99.90
49242;DHT22;35079;52.704;13.814;2023-12-20T07:45:02;5.50;99.90
49242;DHT22;35079;52.704;13.814;2023-12-20T07:47:28;5.40;99.90
49242;DHT22;35079;52.704;13.814;2023-12-20T07:49:53;5.40;99.90
49242;DHT22;35079;52.704;13.814;2023-12-20T07:52:19;5.60;99.90
49242;DHT22;35079;52.704;13.814;2023-12-20T07:54:45;5.50;99.90
49242;DHT22;35079;52.704;13.814;2023-12-20T07:57:12;5.50;99.90
49242;DHT22;35079;52.704;13.814;2023-12-20T07:59:37;5.70;99.90
49242;DHT22;35079;52.704;13.814;2023-12-20T08:02:03;5.50;99.90
49242;DHT22;35079;52.704;13.814;2023-12-20T08:04:29;5.60;99.90
49242;DHT22;35079;52.704;13.814;2023-12-20T08:06:54;5.60;99.90
49242;DHT22;35079;52.704;13.814;2023-12-20T08:09:20;5.50;99.90
49242;DHT22;35079;52.704;13.814;2023-12-20T08:11:49;5.50;99.90
49242;DHT22;35079;52.704;13.814;2023-12-20T08:14:15;5.60;99.90
49242;DHT22;35079;52.704;13.814;2023-12-20T08:16:41;5.60;99.90
49242;DHT22;35079;52.704;13.814;2023-12-20T08:19:07;5.60;99.90
49242;DHT22;35079;52.704;13.814;2023-12-20T08:21:33;5.60;99.90
49242;DHT22;35079;52.704;13.814;2023-12-20T08:23:58;5.60;99.90
49242;DHT22;35079;52.704;13.814;2023-12-20T08:26:26;5.70;99.90
49242;DHT22;35079;52.704;13.814;2023-12-20T08:28:52;5.60;99.90
49242;DHT22;35079;52.704;13.814;2023-12-20T08:31:18;5.70;99.90
49242;DHT22;35079;52.704;13.814;2023-12-20T08:33:44;5.80;99.90
49242;DHT22;35079;52.704;13.814;2023-12-20T08:36:10;5.70;99.90
49242;DHT22;35079;52.704;13.814;2023-12-20T08:38:36;5.70;99.90
49242;DHT22;35079;52.704;13.814;2023-12-20T08:41:02;5.70;99.90
49242;DHT22;35079;52.704;13.814;2023-12-20T08:43:28;5.70;99.90
49242;DHT22;35079;52.704;13.814;2023-12-20T08:45:54;5.80;99.90
49242;DHT22;35079;52.704;13.814;2023-12-20T08:48:20;5.80;99.90
49242;DHT22;35079;52.704;13.814;2023-12-20T08:50:45;5.80;99.90
49242;DHT22;35079;52.704;13.814;2023-12-20T08:53:12;5.80;99.90
49242;DHT22;35079;52.704;13.814;2023-12-20T08:55:38;5.80;99.90
49242;DHT22;35079;52.704;13.814;2023-12-20T08:58:03;6.00;99.90
49242;DHT22;35079;52.704;13.814;2023-12-20T09:00:29;5.90;99.90
49242;DHT22;35079;52.704;13.814;2023-12-20T09:02:55;6.00;99.90
49242;DHT22;35079;52.704;13.814;2023-12-20T09:05:20;5.90;99.90
49242;DHT22;35079;52.704;13.814;2023-12-20T09:07:46;6.10;99.90
49242;DHT22;35079;52.704;13.814;2023-12-20T09:10:12;6.10;99.90
49242;DHT22;35079;52.704;13.814;2023-12-20T09:12:37;6.10;99.90
49242;DHT22;35079;52.704;13.814;2023-12-20T09:15:05;5.90;99.90
49242;DHT22;35079;52.704;13.814;2023-12-20T09:17:31;6.10;99.90
49242;DHT22;35079;52.704;13.814;2023-12-20T09:19:57;6.10;99.90
49242;DHT22;35079;52.704;13.814;2023-12-20T09:22:22;6.00;99.90
49242;DHT22;35079;52.704;13.814;2023-12-20T09:24:49;6.10;99.90
49242;DHT22;35079;52.704;13.814;2023-12-20T09:27:14;6.20;99.90
49242;DHT22;35079;52.704;13.814;2023-12-20T09:29:42;6.20;99.90
49242;DHT22;35079;52.704;13.814;2023-12-20T09:32:08;6.10;99.90
49242;DHT22;35079;52.704;13.814;2023-12-20T09:34:33;6.10;99.90
49242;DHT22;35079;52.704;13.814;2023-12-20T09:36:59;6.00;99.90
49242;DHT22;35079;52.704;13.814;2023-12-20T09:39:24;6.10;99.90
49242;DHT22;35079;52.704;13.814;2023-12-20T09:42:01;6.00;99.90
49242;DHT22;35079;52.704;13.814;2023-12-20T09:44:27;6.10;99.90
49242;DHT22;35079;52.704;13.814;2023-12-20T09:46:55;6.00;99.90
49242;DHT22;35079;52.704;13.814;2023-12-20T09:49:21;6.10;99.90
49242;DHT22;35079;52.704;13.814;2023-12-20T09:51:47;6.20;99.90
49242;DHT22;35079;52.704;13.814;2023-12-20T09:54:16;6.10;99.90
49242;DHT22;35079;52.704;13.814;2023-12-20T09:56:42;6.10;99.90
49242;DHT22;35079;52.704;13.814;2023-12-20T09:59:08;6.10;99.90
49242;DHT22;35079;52.704;13.814;2023-12-20T10:01:34;6.30;99.90
49242;DHT22;35079;52.704;13.814;2023-12-20T10:04:01;6.10;99.90
49242;DHT22;35079;52.704;13.814;2023-12-20T10:06:32;6.30;99.90
49242;DHT22;35079;52.704;13.814;2023-12-20T10:08:58;6.20;99.90
49242;DHT22;35079;52.704;13.814;2023-12-20T10:11:24;6.30;99.90
49242;DHT22;35079;52.704;13.814;2023-12-20T10:13:50;6.30;99.90
49242;DHT22;35079;52.704;13.814;2023-12-20T10:16:16;6.30;99.90
49242;DHT22;35079;52.704;13.814;2023-12-20T10:18:41;6.40;99.90
49242;DHT22;35079;52.704;13.814;2023-12-20T10:21:07;6.20;99.90
49242;DHT22;35079;52.704;13.814;2023-12-20T10:23:37;6.20;99.90
49242;DHT22;35079;52.704;13.814;2023-12-20T10:26:02;6.20;99.90
49242;DHT22;35079;52.704;13.814;2023-12-20T10:28:33;6.40;99.90
49242;DHT22;35079;52.704;13.814;2023-12-20T10:30:59;6.40;99.90
49242;DHT22;35079;52.704;13.814;2023-12-20T10:33:28;6.30;99.90
49242;DHT22;35079;52.704;13.814;2023-12-20T10:35:55;6.30;99.90
49242;DHT22;35079;52.704;13.814;2023-12-20T10:38:21;6.40;99.90
49242;DHT22;35079;52.704;13.814;2023-12-20T10:40:47;6.60;99.90
49242;DHT22;35079;52.704;13.814;2023-12-20T10:43:13;6.60;99.90
49242;DHT22;35079;52.704;13.814;2023-12-20T10:45:41;6.50;99.90
49242;DHT22;35079;52.704;13.814;2023-12-20T10:48:10;6.60;99.90
49242;DHT22;35079;52.704;13.814;2023-12-20T10:50:38;6.70;99.90
49242;DHT22;35079;52.704;13.814;2023-12-20T10:53:06;6.70;99.90
49242;DHT22;35079;52.704;13.814;2023-12-20T10:55:32;6.60;99.90
49242;DHT22;35079;52.704;13.814;2023-12-20T10:58:07;6.70;99.90
49242;DHT22;35079;52.704;13.814;2023-12-20T11:00:41;7.10;99.90
49242;DHT22;35079;52.704;13.814;2023-12-20T11:03:10;7.30;99.90
49242;DHT22;35079;52.704;13.814;2023-12-20T11:08:12;7.40;99.90
49242;DHT22;35079;52.704;13.814;2023-12-20T11:13:58;7.10;99.90
49242;DHT22;35079;52.704;13.814;2023-12-20T11:16:25;7.00;99.90
49242;DHT22;35079;52.704;13.814;2023-12-20T11:18:51;6.90;99.90
49242;DHT22;35079;52.704;13.814;2023-12-20T11:21:18;6.80;99.90
49242;DHT22;35079;52.704;13.814;2023-12-20T11:23:44;6.80;99.90
49242;DHT22;35079;52.704;13.814;2023-12-20T11:26:10;6.90;99.90
49242;DHT22;35079;52.704;13.814;2023-12-20T11:28:35;6.80;99.90
49242;DHT22;35079;52.704;13.814;2023-12-20T11:31:08;6.80;99.90
49242;DHT22;35079;52.704;13.814;2023-12-20T11:33:37;6.90;99.90
49242;DHT22;35079;52.704;13.814;2023-12-20T11:36:03;6.80;99.90
49242;DHT22;35079;52.704;13.814;2023-12-20T11:38:37;6.80;99.90
49242;DHT22;35079;52.704;13.814;2023-12-20T11:41:06;6.80;99.90
49242;DHT22;35079;52.704;13.814;2023-12-20T11:43:36;6.90;99.90
49242;DHT22;35079;52.704;13.814;2023-12-20T11:46:05;6.90;99.90
49242;DHT22;35079;52.704;13.814;2023-12-20T11:48:32;6.70;99.90
49242;DHT22;35079;52.704;13.814;2023-12-20T11:50:58;6.60;99.90
49242;DHT22;35079;52.704;13.814;2023-12-20T11:53:24;6.60;99.90
49242;DHT22;35079;52.704;13.814;2023-12-20T11:55:51;6.60;99.90
49242;DHT22;35079;52.704;13.814;2023-12-20T11:58:17;6.60;99.90
49242;DHT22;35079;52.704;13.814;2023-12-20T12:00:43;6.60;99.90
49242;DHT22;35079;52.704;13.814;2023-12-20T12:03:09;6.60;99.90
49242;DHT22;35079;52.704;13.814;2023-12-20T12:05:35;6.70;99.90
49242;DHT22;35079;52.704;13.814;2023-12-20T12:08:02;6.60;99.90
49242;DHT22;35079;52.704;13.814;2023-12-20T12:10:29;6.70;99.90
49242;DHT22;35079;52.704;13.814;2023-12-20T12:12:56;6.70;99.90
49242;DHT22;35079;52.704;13.814;2023-12-20T12:15:29;6.70;99.90
49242;DHT22;35079;52.704;13.814;2023-12-20T12:17:55;6.70;99.90
49242;DHT22;35079;52.704;13.814;2023-12-20T12:20:22;6.60;99.90
49242;DHT22;35079;52.704;13.814;2023-12-20T12:22:58;6.70;99.90
49242;DHT22;35079;52.704;13.814;2023-12-20T12:25:24;6.50;99.90
49242;DHT22;35079;52.704;13.814;2023-12-20T12:27:51;6.40;99.90
49242;DHT22;35079;52.704;13.814;2023-12-20T12:30:16;6.50;99.90
49242;DHT22;35079;52.704;13.814;2023-12-20T12:32:44;6.40;99.90
49242;DHT22;35079;52.704;13.814;2023-12-20T12:35:10;6.50;99.90
49242;DHT22;35079;52.704;13.814;2023-12-20T12:37:39;6.60;99.90
49242;DHT22;35079;52.704;13.814;2023-12-20T12:40:07;6.50;99.90
49242;DHT22;35079;52.704;13.814;2023-12-20T12:42:36;6.40;99.90
49242;DHT22;35079;52.704;13.814;2023-12-20T12:45:02;6.40;99.90
49242;DHT22;35079;52.704;13.814;2023-12-20T12:47:28;6.30;99.90
49242;DHT22;35079;52.704;13.814;2023-12-20T12:49:54;6.40;99.90
49242;DHT22;35079;52.704;13.814;2023-12-20T12:52:20;6.30;99.90
49242;DHT22;35079;52.704;13.814;2023-12-20T12:54:45;6.30;99.90
49242;DHT22;35079;52.704;13.814;2023-12-20T12:57:13;6.30;99.90
49242;DHT22;35079;52.704;13.814;2023-12-20T12:59:39;6.30;99.90
49242;DHT22;35079;52.704;13.814;2023-12-20T13:02:05;6.30;99.90
49242;DHT22;35079;52.704;13.814;2023-12-20T13:04:31;6.20;99.90
49242;DHT22;35079;52.704;13.814;2023-12-20T13:06:56;6.10;99.90
49242;DHT22;35079;52.704;13.814;2023-12-20T13:09:23;5.90;99.90
49242;DHT22;35079;52.704;13.814;2023-12-20T13:11:48;6.00;99.90
49242;DHT22;35079;52.704;13.814;2023-12-20T13:14:14;6.10;99.90
49242;DHT22;35079;52.704;13.814;2023-12-20T13:16:41;5.90;99.90
49242;DHT22;35079;52.704;13.814;2023-12-20T13:19:10;5.90;99.90
49242;DHT22;35079;52.704;13.814;2023-12-20T13:21:36;5.90;99.90
49242;DHT22;35079;52.704;13.814;2023-12-20T13:24:02;5.80;99.90
49242;DHT22;35079;52.704;13.814;2023-12-20T13:26:27;5.80;99.90
49242;DHT22;35079;52.704;13.814;2023-12-20T13:28:54;5.90;99.90
49242;DHT22;35079;52.704;13.814;2023-12-20T13:31:20;5.80;99.90
49242;DHT22;35079;52.704;13.814;2023-12-20T13:33:46;5.60;99.90
49242;DHT22;35079;52.704;13.814;2023-12-20T13:36:12;5.60;99.90
49242;DHT22;35079;52.704;13.814;2023-12-20T13:38:38;5.50;99.90
49242;DHT22;35079;52.704;13.814;2023-12-20T13:41:04;5.50;99.90
49242;DHT22;35079;52.704;13.814;2023-12-20T13:43:31;5.40;99.90
49242;DHT22;35079;52.704;13.814;2023-12-20T13:45:58;5.50;99.90
49242;DHT22;35079;52.704;13.814;2023-12-20T13:48:24;5.40;99.90
49242;DHT22;35079;52.704;13.814;2023-12-20T13:50:49;5.50;99.90
49242;DHT22;35079;52.704;13.814;2023-12-20T13:53:15;5.50;99.90
49242;DHT22;35079;52.704;13.814;2023-12-20T13:55:41;5.50;99.90
49242;DHT22;35079;52.704;13.814;2023-12-20T13:58:07;5.50;99.90
49242;DHT22;35079;52.704;13.814;2023-12-20T14:00:32;5.50;99.90
49242;DHT22;35079;52.704;13.814;2023-12-20T14:02:58;5.60;99.90
49242;DHT22;35079;52.704;13.814;2023-12-20T14:05:24;5.70;99.90
49242;DHT22;35079;52.704;13.814;2023-12-20T14:07:49;5.90;99.90
49242;DHT22;35079;52.704;13.814;2023-12-20T14:10:16;5.80;99.90
49242;DHT22;35079;52.704;13.814;2023-12-20T14:12:41;5.80;99.90
49242;DHT22;35079;52.704;13.814;2023-12-20T14:15:08;6.00;99.90
49242;DHT22;35079;52.704;13.814;2023-12-20T14:17:38;5.80;99.90
49242;DHT22;35079;52.704;13.814;2023-12-20T14:20:06;5.70;99.90
49242;DHT22;35079;52.704;13.814;2023-12-20T14:22:32;5.70;99.90
49242;DHT22;35079;52.704;13.814;2023-12-20T14:24:58;5.80;99.90
49242;DHT22;35079;52.704;13.814;2023-12-20T14:27:23;5.60;99.90
49242;DHT22;35079;52.704;13.814;2023-12-20T14:29:54;5.70;99.90
49242;DHT22;35079;52.704;13.814;2023-12-20T14:32:19;5.70;99.90
49242;DHT22;35079;52.704;13.814;2023-12-20T14:34:45;5.50;99.90
49242;DHT22;35079;52.704;13.814;2023-12-20T14:37:11;5.50;99.90
49242;DHT22;35079;52.704;13.814;2023-12-20T14:39:37;5.50;99.90
49242;DHT22;35079;52.704;13.814;2023-12-20T14:42:10;5.60;99.90
49242;DHT22;35079;52.704;13.814;2023-12-20T14:44:39;5.40;99.90
49242;DHT22;35079;52.704;13.814;2023-12-20T14:47:06;5.50;99.90
49242;DHT22;35079;52.704;13.814;2023-12-20T14:49:31;5.40;99.90
49242;DHT22;35079;52.704;13.814;2023-12-20T14:51:57;5.40;99.90
49242;DHT22;35079;52.704;13.814;2023-12-20T14:54:23;5.40;99.90
49242;DHT22;35079;52.704;13.814;2023-12-20T14:56:49;5.40;99.90
49242;DHT22;35079;52.704;13.814;2023-12-20T14:59:14;5.30;99.90
49242;DHT22;35079;52.704;13.814;2023-12-20T15:01:40;5.20;99.90
49242;DHT22;35079;52.704;13.814;2023-12-20T15:04:07;4.80;99.90
49242;DHT22;35079;52.704;13.814;2023-12-20T15:06:33;4.40;99.90
49242;DHT22;35079;52.704;13.814;2023-12-20T15:08:59;4.30;99.90
49242;DHT22;35079;52.704;13.814;2023-12-20T15:11:26;4.00;99.90
49242;DHT22;35079;52.704;13.814;2023-12-20T15:13:53;4.10;99.90
49242;DHT22;35079;52.704;13.814;2023-12-20T15:16:23;3.80;99.90
49242;DHT22;35079;52.704;13.814;2023-12-20T15:18:49;3.70;99.90
49242;DHT22;35079;52.704;13.814;2023-12-20T15:21:15;3.60;99.90
49242;DHT22;35079;52.704;13.814;2023-12-20T15:23:41;3.60;99.90
49242;DHT22;35079;52.704;13.814;2023-12-20T15:26:19;3.70;99.90
49242;DHT22;35079;52.704;13.814;2023-12-20T15:28:44;3.50;99.90